createdAt,value
2022-10-08T00:01:45.775Z,59.81
2022-10-08T00:04:15.163Z,57.12
2022-10-08T00:06:45.245Z,57.90
2022-10-08T00:09:15.360Z,57.84
2022-10-08T00:11:45.406Z,58.03
2022-10-08T00:14:15.539Z,57.79
2022-10-08T00:16:46.550Z,57.79
2022-10-08T00:19:17.934Z,57.89
2022-10-08T00:21:52.287Z,57.55
2022-10-08T00:24:22.618Z,57.66
2022-10-08T00:26:53.984Z,57.82
2022-10-08T00:29:24.454Z,59.54
2022-10-08T00:31:54.557Z,59.41
2022-10-08T00:34:25.719Z,59.63
2022-10-08T00:36:57.590Z,59.12
2022-10-08T00:39:28.048Z,58.05
2022-10-08T00:42:01.892Z,57.53
2022-10-08T00:44:54.831Z,57.76
2022-10-08T00:47:41.307Z,57.51
2022-10-08T00:50:32.686Z,57.79
2022-10-08T00:53:06.454Z,57.63
2022-10-08T00:55:43.383Z,57.13
2022-10-08T00:58:22.298Z,56.97
2022-10-08T01:00:52.967Z,57.60
2022-10-08T01:03:22.276Z,57.45
2022-10-08T01:06:13.340Z,56.83
2022-10-08T01:08:55.939Z,58.64
2022-10-08T01:11:41.139Z,57.10
2022-10-08T01:14:29.355Z,57.73
2022-10-08T01:17:13.604Z,57.32
2022-10-08T01:20:14.289Z,57.36
2022-10-08T01:23:14.774Z,57.53
2022-10-08T01:25:57.213Z,57.01
2022-10-08T01:28:57.692Z,57.05
2022-10-08T01:31:37.178Z,57.00
2022-10-08T01:34:22.908Z,57.00
2022-10-08T01:36:59.804Z,57.73
2022-10-08T01:39:34.697Z,56.96
2022-10-08T01:42:08.736Z,59.65
2022-10-08T01:44:44.493Z,57.81
2022-10-08T01:47:20.857Z,57.91
2022-10-08T01:50:07.218Z,57.77
2022-10-08T01:52:50.486Z,58.49
2022-10-08T01:55:38.210Z,57.48
2022-10-08T01:58:44.431Z,57.27
2022-10-08T02:01:44.821Z,57.16
2022-10-08T02:04:32.993Z,58.23
2022-10-08T02:07:12.447Z,57.29
2022-10-08T02:09:46.142Z,57.97
2022-10-08T02:12:17.463Z,58.09
2022-10-08T02:14:54.481Z,57.56
2022-10-08T02:17:25.691Z,58.16
2022-10-08T02:20:04.890Z,57.88
2022-10-08T02:22:44.758Z,57.76
2022-10-08T02:25:38.508Z,58.10
2022-10-08T02:28:29.550Z,57.42
2022-10-08T02:31:15.563Z,57.50
2022-10-08T02:34:02.983Z,57.70
2022-10-08T02:36:39.042Z,58.07
2022-10-08T02:39:09.968Z,58.01
2022-10-08T02:41:48.260Z,58.31
2022-10-08T02:44:28.166Z,58.22
2022-10-08T02:47:02.783Z,58.37
2022-10-08T02:49:38.992Z,57.69
2022-10-08T02:52:12.158Z,60.22
2022-10-08T02:54:46.118Z,57.77
2022-10-08T02:57:38.942Z,58.48
2022-10-08T03:00:10.329Z,58.00
2022-10-08T03:02:45.285Z,57.71
2022-10-08T03:05:20.569Z,58.06
2022-10-08T03:07:53.316Z,58.79
2022-10-08T03:10:27.222Z,58.47
2022-10-08T03:13:03.922Z,57.59
2022-10-08T03:15:35.643Z,57.99
2022-10-08T03:18:10.788Z,58.30
2022-10-08T03:20:48.308Z,58.69
2022-10-08T03:23:20.555Z,60.74
2022-10-08T03:25:50.767Z,60.34
2022-10-08T03:28:20.838Z,59.16
2022-10-08T03:30:50.838Z,58.37
2022-10-08T03:33:21.085Z,58.71
2022-10-08T03:35:51.835Z,58.98
2022-10-08T03:38:25.660Z,58.54
2022-10-08T03:40:58.389Z,59.08
2022-10-08T03:43:35.447Z,58.88
2022-10-08T03:46:06.278Z,61.42
2022-10-08T03:48:37.125Z,60.74
2022-10-08T03:51:15.953Z,58.54
2022-10-08T03:53:46.741Z,60.71
2022-10-08T03:56:19.566Z,60.34
2022-10-08T03:58:54.192Z,59.10
2022-10-08T04:01:25.648Z,59.40
2022-10-08T04:03:56.296Z,58.95
2022-10-08T04:06:26.829Z,58.49
2022-10-08T04:09:02.178Z,61.38
2022-10-08T04:11:32.870Z,59.25
2022-10-08T04:14:02.938Z,59.23
2022-10-08T04:16:33.626Z,58.86
2022-10-08T04:19:04.361Z,59.32
2022-10-08T04:21:34.925Z,58.52
2022-10-08T04:24:05.266Z,61.46
2022-10-08T04:26:35.455Z,58.66
2022-10-08T04:29:05.592Z,59.36
2022-10-08T04:31:35.681Z,59.14
2022-10-08T04:34:05.767Z,59.01
2022-10-08T04:36:36.650Z,58.80
2022-10-08T04:39:07.277Z,58.38
2022-10-08T04:41:37.543Z,59.03
2022-10-08T04:44:07.591Z,58.72
2022-10-08T04:46:37.734Z,58.69
2022-10-08T04:49:07.722Z,58.56
2022-10-08T04:51:37.779Z,59.14
2022-10-08T04:54:07.949Z,58.64
2022-10-08T04:56:38.388Z,58.76
2022-10-08T04:59:08.518Z,59.10
2022-10-08T05:01:38.639Z,59.44
2022-10-08T05:04:08.759Z,58.98
2022-10-08T05:06:38.762Z,60.70
2022-10-08T05:09:09.725Z,58.96
2022-10-08T05:11:40.295Z,58.81
2022-10-08T05:14:11.443Z,59.65
2022-10-08T05:16:42.445Z,61.40
2022-10-08T05:19:12.378Z,58.99
2022-10-08T05:21:42.596Z,59.22
2022-10-08T05:24:14.220Z,59.01
2022-10-08T05:26:59.719Z,58.98
2022-10-08T05:29:31.832Z,61.65
2022-10-08T05:32:02.244Z,59.24
2022-10-08T05:34:31.713Z,59.37
2022-10-08T05:37:01.644Z,58.69
2022-10-08T05:39:31.632Z,58.83
2022-10-08T05:42:03.413Z,59.69
2022-10-08T05:44:37.372Z,59.17
2022-10-08T05:47:07.652Z,59.33
2022-10-08T05:49:38.277Z,60.03
2022-10-08T05:52:08.212Z,59.05
2022-10-08T05:54:38.105Z,59.78
2022-10-08T05:57:08.041Z,62.05
2022-10-08T05:59:38.078Z,61.73
2022-10-08T06:02:08.504Z,59.58
2022-10-08T06:04:38.759Z,61.98
2022-10-08T06:07:08.724Z,60.53
2022-10-08T06:09:38.630Z,60.00
2022-10-08T06:12:11.729Z,60.32
2022-10-08T06:14:42.394Z,59.91
2022-10-08T06:17:12.488Z,62.88
2022-10-08T06:19:42.524Z,62.89
2022-10-08T06:22:12.556Z,60.44
2022-10-08T06:24:43.004Z,59.81
2022-10-08T06:27:13.158Z,60.71
2022-10-08T06:29:43.122Z,59.77
2022-10-08T06:32:13.098Z,61.08
2022-10-08T06:34:43.356Z,60.49
2022-10-08T06:37:13.361Z,60.06
2022-10-08T06:39:48.153Z,60.34
2022-10-08T06:42:19.513Z,59.98
2022-10-08T06:44:50.519Z,63.27
2022-10-08T06:47:20.545Z,60.63
2022-10-08T06:49:50.519Z,60.62
2022-10-08T06:52:20.591Z,60.99
2022-10-08T06:54:51.759Z,61.44
2022-10-08T06:57:22.653Z,60.31
2022-10-08T06:59:55.861Z,60.50
2022-10-08T07:02:26.014Z,63.16
2022-10-08T07:04:56.221Z,60.95
2022-10-08T07:07:26.158Z,60.39
2022-10-08T07:09:57.290Z,61.02
2022-10-08T07:12:27.588Z,62.96
2022-10-08T07:14:57.668Z,61.24
2022-10-08T07:17:29.972Z,60.83
2022-10-08T07:20:00.757Z,63.16
2022-10-08T07:22:30.863Z,60.50
2022-10-08T07:25:02.760Z,60.78
2022-10-08T07:27:32.699Z,61.11
2022-10-08T07:30:02.742Z,60.38
2022-10-08T07:32:32.863Z,60.70
2022-10-08T07:35:02.917Z,63.39
2022-10-08T07:37:32.902Z,61.74
2022-10-08T07:40:02.972Z,61.82
2022-10-08T07:42:34.831Z,61.53
2022-10-08T07:45:04.953Z,60.50
2022-10-08T07:47:35.561Z,60.78
2022-10-08T07:50:05.715Z,60.85
2022-10-08T07:52:35.773Z,61.37
2022-10-08T07:55:06.305Z,61.33
2022-10-08T07:57:36.500Z,61.10
2022-10-08T08:00:07.133Z,60.73
2022-10-08T08:02:41.883Z,61.22
2022-10-08T08:05:11.892Z,61.32
2022-10-08T08:07:42.336Z,61.37
2022-10-08T08:10:12.367Z,61.59
2022-10-08T08:12:42.310Z,60.30
2022-10-08T08:15:12.700Z,60.90
2022-10-08T08:17:42.674Z,61.10
2022-10-08T08:20:12.817Z,61.51
2022-10-08T08:22:42.845Z,61.43
2022-10-08T08:25:12.934Z,61.21
2022-10-08T08:27:43.203Z,61.22
2022-10-08T08:30:15.392Z,63.62
2022-10-08T08:32:46.027Z,61.95
2022-10-08T08:35:16.896Z,61.01
2022-10-08T08:37:46.971Z,62.01
2022-10-08T08:40:16.738Z,63.49
2022-10-08T08:43:04.630Z,60.99
2022-10-08T08:45:47.258Z,61.14
2022-10-08T08:48:28.257Z,61.13
2022-10-08T08:51:00.957Z,61.37
2022-10-08T08:53:31.888Z,60.73
2022-10-08T08:56:07.400Z,63.37
2022-10-08T08:58:40.732Z,61.16
2022-10-08T09:01:10.858Z,61.68
2022-10-08T09:03:52.949Z,61.36
2022-10-08T09:06:27.469Z,60.79
2022-10-08T09:09:00.467Z,63.33
2022-10-08T09:11:31.458Z,63.79
2022-10-08T09:14:15.812Z,61.27
2022-10-08T09:16:46.403Z,61.37
2022-10-08T09:19:16.589Z,62.06
2022-10-08T09:21:46.595Z,61.49
2022-10-08T09:24:18.225Z,63.63
2022-10-08T09:26:48.351Z,61.48
2022-10-08T09:29:34.860Z,60.96
2022-10-08T09:32:05.679Z,61.36
2022-10-08T09:34:36.162Z,61.77
2022-10-08T09:37:07.863Z,61.16
2022-10-08T09:39:39.671Z,61.80
2022-10-08T09:42:09.968Z,61.90
2022-10-08T09:44:56.629Z,61.80
2022-10-08T09:47:27.638Z,61.94
2022-10-08T09:53:13.319Z,63.46
2022-10-08T09:55:52.844Z,64.02
2022-10-08T09:58:23.577Z,65.67
2022-10-08T10:01:08.945Z,64.77
2022-10-08T10:03:39.870Z,62.99
2022-10-08T10:06:10.847Z,62.72
2022-10-08T10:08:52.083Z,62.55
2022-10-08T10:11:43.251Z,62.26
2022-10-08T10:14:18.046Z,62.41
2022-10-08T10:16:56.719Z,61.85
2022-10-08T10:19:34.556Z,61.94
2022-10-08T10:22:16.970Z,61.40
2022-10-08T10:24:49.445Z,61.66
2022-10-08T10:27:31.719Z,61.37
2022-10-08T10:30:34.320Z,61.73
2022-10-08T10:33:16.648Z,62.98
2022-10-08T10:36:02.490Z,61.89
2022-10-08T10:38:42.764Z,61.71
2022-10-08T10:41:52.005Z,61.40
2022-10-08T10:44:28.952Z,61.89
2022-10-08T10:47:01.799Z,61.98
2022-10-08T10:49:39.617Z,61.85
2022-10-08T10:52:35.783Z,61.84
2022-10-08T10:55:20.653Z,61.82
2022-10-08T10:58:15.842Z,63.52
2022-10-08T11:00:48.515Z,61.78
2022-10-08T11:04:31.632Z,63.19
2022-10-08T11:07:45.287Z,63.02
2022-10-08T11:10:26.611Z,64.58
2022-10-08T11:13:05.567Z,62.75
2022-10-08T11:15:50.928Z,61.86
2022-10-08T11:18:26.954Z,62.28
2022-10-08T11:21:32.043Z,62.24
2022-10-08T11:24:11.513Z,62.78
2022-10-08T11:26:46.605Z,62.03
2022-10-08T11:29:22.531Z,62.54
2022-10-08T11:31:54.629Z,61.63
2022-10-08T11:34:51.606Z,61.48
2022-10-08T11:37:43.530Z,62.39
2022-10-08T11:40:34.736Z,61.97
2022-10-08T11:43:14.192Z,61.72
2022-10-08T11:45:51.224Z,62.74
2022-10-08T11:48:41.393Z,62.20
2022-10-08T11:51:30.456Z,62.11
2022-10-08T11:54:09.458Z,61.90
2022-10-08T11:56:43.335Z,62.35
2022-10-08T11:59:31.417Z,62.78
2022-10-08T12:02:05.689Z,62.62
2022-10-08T12:04:39.693Z,62.18
2022-10-08T12:07:27.763Z,62.66
2022-10-08T12:10:10.428Z,62.02
2022-10-08T12:12:52.848Z,61.97
2022-10-08T12:15:25.611Z,62.26
2022-10-08T12:17:59.915Z,62.27
2022-10-08T12:20:36.183Z,62.12
2022-10-08T12:23:35.931Z,62.47
2022-10-08T12:26:10.204Z,62.81
2022-10-08T12:28:49.261Z,61.74
2022-10-08T12:31:21.912Z,62.88
2022-10-08T12:34:05.449Z,62.72
2022-10-08T12:37:07.800Z,61.64
2022-10-08T12:39:49.487Z,62.36
2022-10-08T12:42:34.819Z,62.72
2022-10-08T12:45:32.422Z,62.47
2022-10-08T12:48:33.214Z,61.96
2022-10-08T12:51:23.584Z,62.50
2022-10-08T12:53:53.808Z,64.51
2022-10-08T12:56:31.126Z,62.34
2022-10-08T12:59:05.498Z,62.24
2022-10-08T13:01:36.789Z,63.34
2022-10-08T13:04:20.225Z,62.30
2022-10-08T13:06:52.377Z,62.53
2022-10-08T13:09:31.679Z,62.62
2022-10-08T13:12:07.042Z,62.83
2022-10-08T13:14:40.717Z,62.27
2022-10-08T13:17:31.316Z,62.57
2022-10-08T13:20:10.397Z,63.26
2022-10-08T13:22:40.571Z,62.88
2022-10-08T13:25:44.540Z,62.52
2022-10-08T13:28:18.208Z,63.95
2022-10-08T13:30:48.948Z,64.87
2022-10-08T13:33:25.061Z,63.75
2022-10-08T13:35:57.725Z,63.84
2022-10-08T13:38:37.758Z,63.98
2022-10-08T13:41:10.064Z,63.42
2022-10-08T13:43:42.709Z,61.97
2022-10-08T13:46:12.924Z,61.41
2022-10-08T13:48:46.806Z,58.76
2022-10-08T13:51:16.976Z,53.78
2022-10-08T13:53:47.436Z,52.57
2022-10-08T13:56:19.441Z,52.32
2022-10-08T13:58:49.472Z,50.06
2022-10-08T14:01:19.707Z,45.99
2022-10-08T14:03:50.099Z,45.33
2022-10-08T14:06:20.704Z,43.88
2022-10-08T14:08:50.815Z,41.69
2022-10-08T14:11:21.135Z,43.50
2022-10-08T14:13:51.374Z,41.70
2022-10-08T14:16:21.424Z,39.03
2022-10-08T14:18:51.611Z,41.06
2022-10-08T14:21:21.815Z,36.41
2022-10-08T14:23:51.928Z,35.47
2022-10-08T14:26:22.563Z,35.47
2022-10-08T14:28:52.926Z,35.47
2022-10-08T14:31:22.933Z,36.54
2022-10-08T14:33:53.223Z,38.85
2022-10-08T14:36:28.435Z,37.25
2022-10-08T14:38:58.696Z,40.44
2022-10-08T14:41:29.351Z,37.28
2022-10-08T14:43:59.602Z,36.15
2022-10-08T14:46:29.690Z,36.92
2022-10-08T14:48:59.817Z,33.76
2022-10-08T14:51:34.557Z,34.49
2022-10-08T14:54:04.703Z,38.54
2022-10-08T14:56:35.202Z,42.03
2022-10-08T14:59:06.562Z,41.30
2022-10-08T15:01:38.099Z,35.06
2022-10-08T15:04:09.480Z,36.15
2022-10-08T15:06:40.027Z,34.87
2022-10-08T15:09:13.645Z,35.76
2022-10-08T15:11:44.015Z,36.62
2022-10-08T15:14:15.887Z,36.93
2022-10-08T15:16:45.826Z,37.72
2022-10-08T15:19:18.719Z,37.01
2022-10-08T15:21:53.151Z,35.49
2022-10-08T15:24:23.246Z,35.21
2022-10-08T15:26:53.224Z,36.42
2022-10-08T15:29:23.427Z,34.34
2022-10-08T15:31:55.109Z,34.38
2022-10-08T15:34:25.303Z,34.34
2022-10-08T15:36:57.203Z,33.16
2022-10-08T15:39:30.140Z,34.27
2022-10-08T15:42:02.420Z,34.36
2022-10-08T15:44:33.625Z,33.65
2022-10-08T15:47:09.831Z,34.51
2022-10-08T15:49:43.800Z,34.20
2022-10-08T15:52:17.505Z,38.53
2022-10-08T15:54:48.885Z,35.99
2022-10-08T15:57:19.692Z,36.26
2022-10-08T15:59:49.881Z,36.89
2022-10-08T16:02:20.042Z,35.16
2022-10-08T16:04:50.868Z,36.32
2022-10-08T16:07:20.230Z,35.88
2022-10-08T16:09:50.460Z,36.66
2022-10-08T16:12:21.606Z,35.07
2022-10-08T16:14:52.168Z,37.98
2022-10-08T16:17:22.115Z,36.88
2022-10-08T16:19:52.333Z,35.96
2022-10-08T16:22:22.262Z,35.06
2022-10-08T16:24:52.915Z,37.53
2022-10-08T16:27:22.858Z,34.52
2022-10-08T16:29:53.887Z,34.82
2022-10-08T16:32:24.038Z,34.84
2022-10-08T16:34:54.083Z,37.29
2022-10-08T16:37:24.049Z,34.59
2022-10-08T16:39:54.002Z,35.12
2022-10-08T16:42:24.071Z,34.59
2022-10-08T16:44:54.185Z,36.12
2022-10-08T16:47:24.228Z,34.27
2022-10-08T16:49:54.881Z,34.65
2022-10-08T16:52:24.813Z,33.93
2022-10-08T16:54:54.910Z,33.83
2022-10-08T16:57:26.021Z,34.49
2022-10-08T16:59:56.005Z,35.56
2022-10-08T17:02:27.107Z,34.52
2022-10-08T17:04:57.155Z,36.04
2022-10-08T17:07:27.438Z,35.06
2022-10-08T17:09:57.555Z,36.24
2022-10-08T17:12:28.204Z,36.90
2022-10-08T17:14:58.480Z,35.56
2022-10-08T17:17:29.419Z,37.02
2022-10-08T17:19:59.353Z,37.99
2022-10-08T17:22:30.144Z,36.87
2022-10-08T17:25:00.100Z,35.27
2022-10-08T17:27:31.096Z,34.45
2022-10-08T17:30:01.027Z,35.15
2022-10-08T17:32:31.313Z,35.06
2022-10-08T17:35:01.255Z,35.81
2022-10-08T17:37:31.299Z,35.89
2022-10-08T17:40:01.316Z,35.78
2022-10-08T17:42:31.541Z,35.58
2022-10-08T17:45:01.445Z,34.86
2022-10-08T17:47:31.436Z,34.65
2022-10-08T17:50:01.358Z,34.56
2022-10-08T17:52:31.336Z,35.56
2022-10-08T17:55:01.242Z,38.41
2022-10-08T17:57:31.304Z,37.77
2022-10-08T18:00:01.228Z,36.31
2022-10-08T18:02:38.531Z,38.92
2022-10-08T18:05:09.032Z,39.30
2022-10-08T18:07:38.306Z,40.41
2022-10-08T18:10:08.004Z,41.46
2022-10-08T18:12:39.236Z,40.41
2022-10-08T18:15:11.324Z,38.99
2022-10-08T18:17:41.558Z,39.49
2022-10-08T18:20:11.624Z,39.65
2022-10-08T18:22:41.623Z,40.99
2022-10-08T18:25:12.293Z,36.99
2022-10-08T18:27:42.892Z,38.72
2022-10-08T18:30:13.445Z,37.91
2022-10-08T18:32:45.180Z,37.98
2022-10-08T18:35:15.798Z,39.58
2022-10-08T18:37:48.511Z,38.32
2022-10-08T18:40:18.757Z,39.26
2022-10-08T18:42:48.991Z,39.86
2022-10-08T18:45:19.633Z,37.84
2022-10-08T18:47:49.735Z,39.42
2022-10-08T18:50:19.711Z,41.40
2022-10-08T18:52:50.031Z,41.05
2022-10-08T18:55:21.079Z,37.64
2022-10-08T18:57:55.726Z,39.90
2022-10-08T19:00:26.007Z,41.35
2022-10-08T19:02:58.795Z,41.22
2022-10-08T19:05:29.388Z,41.29
2022-10-08T19:07:59.426Z,41.38
2022-10-08T19:10:29.529Z,36.64
2022-10-08T19:12:59.488Z,39.63
2022-10-08T19:15:29.479Z,36.85
2022-10-08T19:17:59.394Z,38.18
2022-10-08T19:20:29.361Z,35.56
2022-10-08T19:22:59.450Z,39.27
2022-10-08T19:25:31.281Z,35.64
2022-10-08T19:28:01.678Z,37.39
2022-10-08T19:30:35.437Z,37.72
2022-10-08T19:33:05.695Z,37.34
2022-10-08T19:35:35.688Z,37.81
2022-10-08T19:38:05.702Z,36.00
2022-10-08T19:40:38.821Z,35.82
2022-10-08T19:43:08.904Z,37.66
2022-10-08T19:45:39.044Z,37.32
2022-10-08T19:48:11.150Z,37.64
2022-10-08T19:50:41.787Z,39.35
2022-10-08T19:53:11.842Z,39.64
2022-10-08T19:55:41.937Z,36.81
2022-10-08T19:58:12.386Z,37.28
2022-10-08T20:00:42.405Z,37.60
2022-10-08T20:03:12.333Z,38.13
2022-10-08T20:05:42.422Z,36.68
2022-10-08T20:08:13.401Z,36.57
2022-10-08T20:10:44.176Z,38.01
2022-10-08T20:13:14.378Z,38.19
2022-10-08T20:15:48.967Z,35.77
2022-10-08T20:18:20.760Z,35.91
2022-10-08T20:21:00.975Z,36.82
2022-10-08T20:23:31.162Z,35.02
2022-10-08T20:26:13.438Z,35.06
2022-10-08T20:28:44.802Z,34.31
2022-10-08T20:31:23.907Z,36.52
2022-10-08T20:34:06.112Z,38.22
2022-10-08T20:36:36.023Z,39.92
2022-10-08T20:39:06.894Z,38.27
2022-10-08T20:41:37.377Z,35.90
2022-10-08T20:44:07.862Z,36.82
2022-10-08T20:46:39.030Z,38.35
2022-10-08T20:49:10.079Z,36.31
2022-10-08T20:51:42.096Z,38.93
2022-10-08T20:54:15.780Z,34.56
2022-10-08T20:56:46.988Z,36.29
2022-10-08T20:59:19.791Z,40.41
2022-10-08T21:01:52.386Z,36.43
2022-10-08T21:04:23.027Z,35.72
2022-10-08T21:06:54.519Z,38.97
2022-10-08T21:09:24.779Z,39.36
2022-10-08T21:11:55.573Z,41.27
2022-10-08T21:14:26.287Z,40.67
2022-10-08T21:16:56.254Z,38.40
2022-10-08T21:19:27.187Z,41.08
2022-10-08T21:21:57.506Z,40.67
2022-10-08T21:24:27.704Z,37.42
2022-10-08T21:26:57.654Z,37.09
2022-10-08T21:29:27.743Z,36.32
2022-10-08T21:31:57.749Z,36.55
2022-10-08T21:34:27.947Z,37.93
2022-10-08T21:36:58.374Z,37.92
2022-10-08T21:39:28.363Z,35.79
2022-10-08T21:41:58.436Z,38.55
2022-10-08T21:44:28.511Z,35.49
2022-10-08T21:46:58.641Z,35.67
2022-10-08T21:49:28.875Z,35.37
2022-10-08T21:51:59.558Z,35.47
2022-10-08T21:54:29.686Z,34.74
2022-10-08T21:56:59.760Z,36.10
2022-10-08T21:59:29.849Z,36.08
2022-10-08T22:01:59.762Z,36.92
2022-10-08T22:04:29.754Z,37.57
2022-10-08T22:07:00.773Z,35.74
2022-10-08T22:09:33.597Z,34.62
2022-10-08T22:12:04.325Z,33.99
2022-10-08T22:14:34.288Z,34.48
2022-10-08T22:17:04.577Z,34.03
2022-10-08T22:19:38.127Z,33.21
2022-10-08T22:22:08.134Z,33.41
2022-10-08T22:24:39.385Z,34.05
2022-10-08T22:27:09.310Z,36.87
2022-10-08T22:29:39.259Z,34.11
2022-10-08T22:32:08.568Z,33.57
2022-10-08T22:34:39.654Z,34.81
2022-10-08T22:37:09.586Z,35.44
2022-10-08T22:39:39.715Z,35.14
2022-10-08T22:42:09.927Z,33.92
2022-10-08T22:44:39.894Z,33.18
2022-10-08T22:47:10.309Z,35.51
2022-10-08T22:49:40.407Z,33.12
2022-10-08T22:52:10.368Z,33.66
2022-10-08T22:54:40.285Z,33.88
2022-10-08T22:57:10.246Z,35.57
2022-10-08T22:59:40.286Z,34.45
2022-10-08T23:02:10.378Z,33.51
2022-10-08T23:04:40.381Z,34.25
2022-10-08T23:07:10.377Z,35.17
2022-10-08T23:09:40.391Z,36.60
2022-10-08T23:12:10.363Z,32.74
2022-10-08T23:14:40.454Z,32.69
2022-10-08T23:17:09.827Z,34.86
2022-10-08T23:19:39.895Z,34.90
2022-10-08T23:22:09.824Z,34.18
2022-10-08T23:24:39.798Z,33.39
2022-10-08T23:27:09.879Z,33.98
2022-10-08T23:29:39.921Z,36.23
2022-10-08T23:32:10.029Z,34.73
2022-10-08T23:34:40.012Z,35.06
2022-10-08T23:37:10.073Z,37.07
2022-10-08T23:39:40.066Z,35.51
2022-10-08T23:42:10.054Z,32.46
2022-10-08T23:44:40.777Z,33.49
2022-10-08T23:47:10.798Z,34.10
2022-10-08T23:49:40.905Z,33.65
2022-10-08T23:52:10.919Z,32.87
2022-10-08T23:54:41.018Z,33.25
2022-10-08T23:57:11.544Z,34.66
2022-10-08T23:59:42.132Z,31.80
